sensor_id;sensor_type;location;lat;lon;timestamp;P1;durP1;ratioP1;P2;durP2;ratioP2
50739;SDS011;36704;52.524;17.580;2022-07-30T00:00:56;6.78;;;3.08;;
50739;SDS011;36704;52.524;17.580;2022-07-30T00:03:42;6.95;;;2.72;;
50739;SDS011;36704;52.524;17.580;2022-07-30T00:06:32;5.75;;;2.45;;
50739;SDS011;36704;52.524;17.580;2022-07-30T00:09:18;6.13;;;2.47;;
50739;SDS011;36704;52.524;17.580;2022-07-30T00:12:05;9.10;;;3.03;;
50739;SDS011;36704;52.524;17.580;2022-07-30T00:14:51;13.10;;;2.90;;
50739;SDS011;36704;52.524;17.580;2022-07-30T00:17:37;9.68;;;3.08;;
50739;SDS011;36704;52.524;17.580;2022-07-30T00:20:24;9.18;;;3.75;;
50739;SDS011;36704;52.524;17.580;2022-07-30T00:23:12;6.22;;;3.25;;
50739;SDS011;36704;52.524;17.580;2022-07-30T00:26:00;9.25;;;3.28;;
50739;SDS011;36704;52.524;17.580;2022-07-30T00:28:47;5.65;;;3.67;;
50739;SDS011;36704;52.524;17.580;2022-07-30T00:31:33;10.52;;;3.50;;
50739;SDS011;36704;52.524;17.580;2022-07-30T00:34:19;11.77;;;4.30;;
50739;SDS011;36704;52.524;17.580;2022-07-30T00:37:05;8.77;;;4.15;;
50739;SDS011;36704;52.524;17.580;2022-07-30T00:39:51;7.78;;;4.63;;
50739;SDS011;36704;52.524;17.580;2022-07-30T00:42:47;8.45;;;4.18;;
50739;SDS011;36704;52.524;17.580;2022-07-30T00:45:34;8.73;;;3.95;;
50739;SDS011;36704;52.524;17.580;2022-07-30T00:48:21;9.68;;;3.97;;
50739;SDS011;36704;52.524;17.580;2022-07-30T00:51:08;10.60;;;4.30;;
50739;SDS011;36704;52.524;17.580;2022-07-30T00:53:56;5.75;;;3.95;;
50739;SDS011;36704;52.524;17.580;2022-07-30T00:56:42;8.77;;;3.72;;
50739;SDS011;36704;52.524;17.580;2022-07-30T00:59:28;7.40;;;3.25;;
50739;SDS011;36704;52.524;17.580;2022-07-30T01:02:16;8.27;;;3.83;;
50739;SDS011;36704;52.524;17.580;2022-07-30T01:05:04;8.57;;;3.67;;
50739;SDS011;36704;52.524;17.580;2022-07-30T01:07:51;6.80;;;3.42;;
50739;SDS011;36704;52.524;17.580;2022-07-30T01:10:39;6.03;;;3.60;;
50739;SDS011;36704;52.524;17.580;2022-07-30T01:13:27;7.07;;;3.17;;
50739;SDS011;36704;52.524;17.580;2022-07-30T01:16:14;11.52;;;3.47;;
50739;SDS011;36704;52.524;17.580;2022-07-30T01:19:01;8.50;;;3.40;;
50739;SDS011;36704;52.524;17.580;2022-07-30T01:22:11;10.02;;;3.40;;
50739;SDS011;36704;52.524;17.580;2022-07-30T01:25:27;7.22;;;3.15;;
50739;SDS011;36704;52.524;17.580;2022-07-30T01:28:23;6.05;;;3.63;;
50739;SDS011;36704;52.524;17.580;2022-07-30T01:31:12;6.38;;;3.42;;
50739;SDS011;36704;52.524;17.580;2022-07-30T01:33:58;8.73;;;3.45;;
50739;SDS011;36704;52.524;17.580;2022-07-30T01:36:46;4.88;;;3.00;;
50739;SDS011;36704;52.524;17.580;2022-07-30T01:39:32;10.05;;;3.78;;
50739;SDS011;36704;52.524;17.580;2022-07-30T01:42:19;12.57;;;4.57;;
50739;SDS011;36704;52.524;17.580;2022-07-30T01:45:07;7.95;;;3.38;;
50739;SDS011;36704;52.524;17.580;2022-07-30T01:47:57;9.25;;;3.55;;
50739;SDS011;36704;52.524;17.580;2022-07-30T01:50:45;8.00;;;3.45;;
50739;SDS011;36704;52.524;17.580;2022-07-30T01:53:36;4.85;;;3.20;;
50739;SDS011;36704;52.524;17.580;2022-07-30T01:56:23;6.05;;;3.13;;
50739;SDS011;36704;52.524;17.580;2022-07-30T01:59:12;6.85;;;3.60;;
50739;SDS011;36704;52.524;17.580;2022-07-30T02:02:05;6.32;;;3.45;;
50739;SDS011;36704;52.524;17.580;2022-07-30T02:04:53;6.53;;;3.30;;
50739;SDS011;36704;52.524;17.580;2022-07-30T02:08:02;6.55;;;2.90;;
50739;SDS011;36704;52.524;17.580;2022-07-30T02:10:50;6.30;;;3.10;;
50739;SDS011;36704;52.524;17.580;2022-07-30T02:13:49;4.70;;;3.20;;
50739;SDS011;36704;52.524;17.580;2022-07-30T02:16:37;6.35;;;2.63;;
50739;SDS011;36704;52.524;17.580;2022-07-30T02:19:25;7.15;;;3.45;;
50739;SDS011;36704;52.524;17.580;2022-07-30T02:22:19;8.68;;;3.20;;
50739;SDS011;36704;52.524;17.580;2022-07-30T02:25:08;13.65;;;3.40;;
50739;SDS011;36704;52.524;17.580;2022-07-30T02:27:56;8.02;;;3.45;;
50739;SDS011;36704;52.524;17.580;2022-07-30T02:30:52;11.90;;;3.72;;
50739;SDS011;36704;52.524;17.580;2022-07-30T02:33:41;9.38;;;3.38;;
50739;SDS011;36704;52.524;17.580;2022-07-30T02:36:33;6.78;;;3.50;;
50739;SDS011;36704;52.524;17.580;2022-07-30T02:39:20;6.20;;;3.20;;
50739;SDS011;36704;52.524;17.580;2022-07-30T02:42:09;6.13;;;3.33;;
50739;SDS011;36704;52.524;17.580;2022-07-30T02:44:57;7.25;;;3.55;;
50739;SDS011;36704;52.524;17.580;2022-07-30T02:47:45;8.80;;;3.60;;
50739;SDS011;36704;52.524;17.580;2022-07-30T02:50:34;9.75;;;3.60;;
50739;SDS011;36704;52.524;17.580;2022-07-30T02:53:21;8.38;;;3.30;;
50739;SDS011;36704;52.524;17.580;2022-07-30T02:56:09;6.40;;;3.95;;
50739;SDS011;36704;52.524;17.580;2022-07-30T02:58:57;6.97;;;3.35;;
50739;SDS011;36704;52.524;17.580;2022-07-30T03:01:44;8.02;;;4.05;;
50739;SDS011;36704;52.524;17.580;2022-07-30T03:04:31;11.13;;;3.60;;
50739;SDS011;36704;52.524;17.580;2022-07-30T03:07:18;5.97;;;3.15;;
50739;SDS011;36704;52.524;17.580;2022-07-30T03:10:06;10.30;;;3.00;;
50739;SDS011;36704;52.524;17.580;2022-07-30T03:12:54;24.25;;;3.42;;
50739;SDS011;36704;52.524;17.580;2022-07-30T03:15:44;6.45;;;2.33;;
50739;SDS011;36704;52.524;17.580;2022-07-30T03:18:39;4.80;;;2.47;;
50739;SDS011;36704;52.524;17.580;2022-07-30T03:21:27;3.05;;;2.30;;
50739;SDS011;36704;52.524;17.580;2022-07-30T03:24:18;3.63;;;2.22;;
50739;SDS011;36704;52.524;17.580;2022-07-30T03:27:06;6.00;;;2.50;;
50739;SDS011;36704;52.524;17.580;2022-07-30T03:29:53;4.35;;;2.08;;
50739;SDS011;36704;52.524;17.580;2022-07-30T03:32:40;4.13;;;2.38;;
50739;SDS011;36704;52.524;17.580;2022-07-30T03:35:28;3.92;;;1.90;;
50739;SDS011;36704;52.524;17.580;2022-07-30T03:38:17;4.45;;;2.15;;
50739;SDS011;36704;52.524;17.580;2022-07-30T03:41:05;14.77;;;3.15;;
50739;SDS011;36704;52.524;17.580;2022-07-30T03:43:54;17.75;;;4.50;;
50739;SDS011;36704;52.524;17.580;2022-07-30T03:46:43;5.53;;;2.60;;
50739;SDS011;36704;52.524;17.580;2022-07-30T03:49:29;7.68;;;3.20;;
50739;SDS011;36704;52.524;17.580;2022-07-30T03:52:17;6.45;;;3.88;;
50739;SDS011;36704;52.524;17.580;2022-07-30T03:55:05;5.63;;;3.40;;
50739;SDS011;36704;52.524;17.580;2022-07-30T03:57:55;10.43;;;3.10;;
50739;SDS011;36704;52.524;17.580;2022-07-30T04:00:47;6.30;;;3.10;;
50739;SDS011;36704;52.524;17.580;2022-07-30T04:03:35;5.45;;;3.13;;
50739;SDS011;36704;52.524;17.580;2022-07-30T04:06:24;9.82;;;3.75;;
50739;SDS011;36704;52.524;17.580;2022-07-30T04:09:11;8.20;;;3.70;;
50739;SDS011;36704;52.524;17.580;2022-07-30T04:11:57;8.30;;;3.15;;
50739;SDS011;36704;52.524;17.580;2022-07-30T04:14:51;5.88;;;3.33;;
50739;SDS011;36704;52.524;17.580;2022-07-30T04:20:33;5.53;;;3.63;;
50739;SDS011;36704;52.524;17.580;2022-07-30T04:23:22;6.07;;;3.60;;
50739;SDS011;36704;52.524;17.580;2022-07-30T04:26:08;6.25;;;3.03;;
50739;SDS011;36704;52.524;17.580;2022-07-30T04:28:54;6.53;;;3.53;;
50739;SDS011;36704;52.524;17.580;2022-07-30T04:31:42;5.50;;;3.63;;
50739;SDS011;36704;52.524;17.580;2022-07-30T04:34:51;6.15;;;3.42;;
50739;SDS011;36704;52.524;17.580;2022-07-30T04:40:49;6.15;;;3.25;;
50739;SDS011;36704;52.524;17.580;2022-07-30T04:43:36;5.85;;;3.15;;
50739;SDS011;36704;52.524;17.580;2022-07-30T04:46:22;8.35;;;4.07;;
50739;SDS011;36704;52.524;17.580;2022-07-30T04:49:11;6.90;;;3.33;;
50739;SDS011;36704;52.524;17.580;2022-07-30T04:51:59;6.28;;;3.63;;
50739;SDS011;36704;52.524;17.580;2022-07-30T04:54:47;9.35;;;3.80;;
50739;SDS011;36704;52.524;17.580;2022-07-30T04:57:39;7.43;;;4.10;;
50739;SDS011;36704;52.524;17.580;2022-07-30T05:00:27;7.60;;;4.25;;
50739;SDS011;36704;52.524;17.580;2022-07-30T05:03:17;10.18;;;4.05;;
50739;SDS011;36704;52.524;17.580;2022-07-30T05:06:08;4.95;;;3.75;;
50739;SDS011;36704;52.524;17.580;2022-07-30T05:08:57;5.35;;;3.88;;
50739;SDS011;36704;52.524;17.580;2022-07-30T05:11:50;8.98;;;3.45;;
50739;SDS011;36704;52.524;17.580;2022-07-30T05:14:38;9.02;;;4.05;;
50739;SDS011;36704;52.524;17.580;2022-07-30T05:17:24;8.50;;;3.70;;
50739;SDS011;36704;52.524;17.580;2022-07-30T05:20:11;8.43;;;4.22;;
50739;SDS011;36704;52.524;17.580;2022-07-30T05:23:32;7.70;;;3.45;;
50739;SDS011;36704;52.524;17.580;2022-07-30T05:26:32;5.72;;;2.97;;
50739;SDS011;36704;52.524;17.580;2022-07-30T05:29:20;4.68;;;3.67;;
50739;SDS011;36704;52.524;17.580;2022-07-30T05:32:12;6.57;;;3.45;;
50739;SDS011;36704;52.524;17.580;2022-07-30T05:35:00;6.88;;;3.80;;
50739;SDS011;36704;52.524;17.580;2022-07-30T05:37:47;8.18;;;3.50;;
50739;SDS011;36704;52.524;17.580;2022-07-30T05:40:34;8.48;;;3.22;;
50739;SDS011;36704;52.524;17.580;2022-07-30T05:43:40;10.05;;;3.40;;
50739;SDS011;36704;52.524;17.580;2022-07-30T05:46:28;6.35;;;3.38;;
50739;SDS011;36704;52.524;17.580;2022-07-30T05:49:16;9.95;;;3.10;;
50739;SDS011;36704;52.524;17.580;2022-07-30T05:52:03;5.55;;;3.03;;
50739;SDS011;36704;52.524;17.580;2022-07-30T05:54:51;5.95;;;3.28;;
50739;SDS011;36704;52.524;17.580;2022-07-30T05:58:15;4.50;;;3.17;;
50739;SDS011;36704;52.524;17.580;2022-07-30T06:01:05;5.75;;;3.53;;
50739;SDS011;36704;52.524;17.580;2022-07-30T06:03:51;7.97;;;3.15;;
50739;SDS011;36704;52.524;17.580;2022-07-30T06:06:56;5.50;;;3.17;;
50739;SDS011;36704;52.524;17.580;2022-07-30T06:09:44;4.80;;;3.30;;
50739;SDS011;36704;52.524;17.580;2022-07-30T06:12:32;7.68;;;2.95;;
50739;SDS011;36704;52.524;17.580;2022-07-30T06:15:20;8.68;;;3.28;;
50739;SDS011;36704;52.524;17.580;2022-07-30T06:18:13;5.65;;;2.90;;
50739;SDS011;36704;52.524;17.580;2022-07-30T06:21:04;8.48;;;4.10;;
50739;SDS011;36704;52.524;17.580;2022-07-30T06:24:09;3.92;;;2.40;;
50739;SDS011;36704;52.524;17.580;2022-07-30T06:27:02;12.57;;;3.08;;
50739;SDS011;36704;52.524;17.580;2022-07-30T06:29:50;5.25;;;2.97;;
50739;SDS011;36704;52.524;17.580;2022-07-30T06:32:36;7.82;;;2.67;;
50739;SDS011;36704;52.524;17.580;2022-07-30T06:35:24;6.38;;;2.90;;
50739;SDS011;36704;52.524;17.580;2022-07-30T06:38:16;2.63;;;2.42;;
50739;SDS011;36704;52.524;17.580;2022-07-30T06:41:13;4.90;;;2.90;;
50739;SDS011;36704;52.524;17.580;2022-07-30T06:44:10;5.82;;;3.20;;
50739;SDS011;36704;52.524;17.580;2022-07-30T06:47:19;5.50;;;3.08;;
50739;SDS011;36704;52.524;17.580;2022-07-30T06:50:16;5.55;;;2.55;;
50739;SDS011;36704;52.524;17.580;2022-07-30T06:53:03;6.60;;;3.00;;
50739;SDS011;36704;52.524;17.580;2022-07-30T06:56:09;6.40;;;3.28;;
50739;SDS011;36704;52.524;17.580;2022-07-30T06:59:03;4.80;;;3.10;;
50739;SDS011;36704;52.524;17.580;2022-07-30T07:02:11;5.13;;;2.80;;
50739;SDS011;36704;52.524;17.580;2022-07-30T07:05:20;4.75;;;3.30;;
50739;SDS011;36704;52.524;17.580;2022-07-30T07:08:08;7.70;;;3.50;;
50739;SDS011;36704;52.524;17.580;2022-07-30T07:10:58;6.30;;;3.70;;
50739;SDS011;36704;52.524;17.580;2022-07-30T07:13:49;6.63;;;3.60;;
50739;SDS011;36704;52.524;17.580;2022-07-30T07:16:44;5.85;;;3.80;;
50739;SDS011;36704;52.524;17.580;2022-07-30T07:20:09;4.90;;;3.88;;
50739;SDS011;36704;52.524;17.580;2022-07-30T07:23:04;8.82;;;3.58;;
50739;SDS011;36704;52.524;17.580;2022-07-30T07:25:58;5.63;;;4.30;;
50739;SDS011;36704;52.524;17.580;2022-07-30T07:28:49;4.70;;;3.28;;
50739;SDS011;36704;52.524;17.580;2022-07-30T07:31:36;5.47;;;3.40;;
50739;SDS011;36704;52.524;17.580;2022-07-30T07:34:42;4.82;;;3.05;;
50739;SDS011;36704;52.524;17.580;2022-07-30T07:37:29;7.13;;;3.30;;
50739;SDS011;36704;52.524;17.580;2022-07-30T07:40:16;4.80;;;2.95;;
50739;SDS011;36704;52.524;17.580;2022-07-30T07:43:03;7.30;;;2.85;;
50739;SDS011;36704;52.524;17.580;2022-07-30T07:45:51;6.20;;;2.72;;
50739;SDS011;36704;52.524;17.580;2022-07-30T07:48:39;4.80;;;2.40;;
50739;SDS011;36704;52.524;17.580;2022-07-30T07:51:44;7.30;;;2.95;;
50739;SDS011;36704;52.524;17.580;2022-07-30T07:54:36;4.40;;;2.47;;
50739;SDS011;36704;52.524;17.580;2022-07-30T07:57:24;7.35;;;3.03;;
50739;SDS011;36704;52.524;17.580;2022-07-30T08:00:13;7.05;;;3.00;;
50739;SDS011;36704;52.524;17.580;2022-07-30T08:03:06;4.30;;;2.60;;
50739;SDS011;36704;52.524;17.580;2022-07-30T08:05:53;4.28;;;2.58;;
50739;SDS011;36704;52.524;17.580;2022-07-30T08:09:11;5.13;;;2.50;;
50739;SDS011;36704;52.524;17.580;2022-07-30T08:12:36;7.88;;;2.63;;
50739;SDS011;36704;52.524;17.580;2022-07-30T08:15:40;4.88;;;2.63;;
50739;SDS011;36704;52.524;17.580;2022-07-30T08:18:53;3.60;;;1.92;;
50739;SDS011;36704;52.524;17.580;2022-07-30T08:21:46;4.00;;;2.50;;
50739;SDS011;36704;52.524;17.580;2022-07-30T08:24:35;5.45;;;2.45;;
50739;SDS011;36704;52.524;17.580;2022-07-30T08:27:21;3.42;;;2.15;;
50739;SDS011;36704;52.524;17.580;2022-07-30T08:30:09;4.97;;;1.83;;
50739;SDS011;36704;52.524;17.580;2022-07-30T08:32:55;10.05;;;2.38;;
50739;SDS011;36704;52.524;17.580;2022-07-30T08:35:43;3.55;;;2.10;;
50739;SDS011;36704;52.524;17.580;2022-07-30T08:38:40;5.22;;;2.20;;
50739;SDS011;36704;52.524;17.580;2022-07-30T08:41:26;3.80;;;2.17;;
50739;SDS011;36704;52.524;17.580;2022-07-30T08:44:12;4.20;;;2.10;;
50739;SDS011;36704;52.524;17.580;2022-07-30T08:47:07;3.05;;;1.73;;
50739;SDS011;36704;52.524;17.580;2022-07-30T08:50:12;4.10;;;1.90;;
50739;SDS011;36704;52.524;17.580;2022-07-30T08:53:20;4.57;;;1.80;;
50739;SDS011;36704;52.524;17.580;2022-07-30T08:56:06;5.95;;;1.95;;
50739;SDS011;36704;52.524;17.580;2022-07-30T08:58:55;4.38;;;1.45;;
50739;SDS011;36704;52.524;17.580;2022-07-30T09:01:42;5.05;;;1.60;;
50739;SDS011;36704;52.524;17.580;2022-07-30T09:04:28;3.50;;;1.10;;
50739;SDS011;36704;52.524;17.580;2022-07-30T09:07:14;2.85;;;1.50;;
50739;SDS011;36704;52.524;17.580;2022-07-30T09:10:01;4.43;;;1.50;;
50739;SDS011;36704;52.524;17.580;2022-07-30T09:12:50;7.95;;;1.33;;
50739;SDS011;36704;52.524;17.580;2022-07-30T09:15:38;5.05;;;1.73;;
50739;SDS011;36704;52.524;17.580;2022-07-30T09:18:35;5.80;;;2.47;;
50739;SDS011;36704;52.524;17.580;2022-07-30T09:21:26;6.88;;;1.80;;
50739;SDS011;36704;52.524;17.580;2022-07-30T09:24:29;4.97;;;1.42;;
50739;SDS011;36704;52.524;17.580;2022-07-30T09:27:57;5.72;;;1.77;;
50739;SDS011;36704;52.524;17.580;2022-07-30T09:31:21;4.25;;;1.13;;
50739;SDS011;36704;52.524;17.580;2022-07-30T09:37:20;2.50;;;1.10;;
50739;SDS011;36704;52.524;17.580;2022-07-30T09:40:21;3.17;;;0.95;;
50739;SDS011;36704;52.524;17.580;2022-07-30T09:43:49;6.80;;;1.60;;
50739;SDS011;36704;52.524;17.580;2022-07-30T09:46:57;4.78;;;1.60;;
50739;SDS011;36704;52.524;17.580;2022-07-30T09:49:47;4.07;;;1.30;;
50739;SDS011;36704;52.524;17.580;2022-07-30T09:52:52;3.38;;;0.90;;
50739;SDS011;36704;52.524;17.580;2022-07-30T09:55:39;2.63;;;1.10;;
50739;SDS011;36704;52.524;17.580;2022-07-30T09:58:37;5.20;;;1.10;;
50739;SDS011;36704;52.524;17.580;2022-07-30T10:01:53;8.27;;;1.85;;
50739;SDS011;36704;52.524;17.580;2022-07-30T10:05:30;4.13;;;1.90;;
50739;SDS011;36704;52.524;17.580;2022-07-30T10:08:17;5.70;;;1.10;;
50739;SDS011;36704;52.524;17.580;2022-07-30T10:11:04;3.13;;;1.13;;
50739;SDS011;36704;52.524;17.580;2022-07-30T10:13:55;3.40;;;1.00;;
50739;SDS011;36704;52.524;17.580;2022-07-30T10:16:42;4.28;;;1.20;;
50739;SDS011;36704;52.524;17.580;2022-07-30T10:19:31;6.43;;;1.58;;
50739;SDS011;36704;52.524;17.580;2022-07-30T10:22:51;10.82;;;2.05;;
50739;SDS011;36704;52.524;17.580;2022-07-30T10:25:55;3.58;;;1.10;;
50739;SDS011;36704;52.524;17.580;2022-07-30T10:28:57;2.65;;;1.20;;
50739;SDS011;36704;52.524;17.580;2022-07-30T10:31:44;7.15;;;1.80;;
50739;SDS011;36704;52.524;17.580;2022-07-30T10:34:39;7.80;;;1.27;;
50739;SDS011;36704;52.524;17.580;2022-07-30T10:37:27;4.20;;;1.00;;
50739;SDS011;36704;52.524;17.580;2022-07-30T10:40:20;3.28;;;1.20;;
50739;SDS011;36704;52.524;17.580;2022-07-30T10:49:13;3.63;;;1.17;;
50739;SDS011;36704;52.524;17.580;2022-07-30T10:52:05;5.10;;;1.10;;
50739;SDS011;36704;52.524;17.580;2022-07-30T10:54:54;5.25;;;1.00;;
50739;SDS011;36704;52.524;17.580;2022-07-30T10:58:00;3.17;;;1.20;;
50739;SDS011;36704;52.524;17.580;2022-07-30T11:03:37;4.82;;;1.15;;
50739;SDS011;36704;52.524;17.580;2022-07-30T11:06:29;5.05;;;1.40;;
50739;SDS011;36704;52.524;17.580;2022-07-30T11:09:35;7.65;;;1.40;;
50739;SDS011;36704;52.524;17.580;2022-07-30T11:16:12;2.28;;;1.35;;
50739;SDS011;36704;52.524;17.580;2022-07-30T11:22:26;2.28;;;1.25;;
50739;SDS011;36704;52.524;17.580;2022-07-30T11:28:07;2.25;;;1.00;;
50739;SDS011;36704;52.524;17.580;2022-07-30T11:34:36;8.15;;;2.03;;
50739;SDS011;36704;52.524;17.580;2022-07-30T11:37:23;6.15;;;1.00;;
50739;SDS011;36704;52.524;17.580;2022-07-30T11:40:17;6.20;;;1.95;;
50739;SDS011;36704;52.524;17.580;2022-07-30T11:43:30;1.95;;;1.00;;
50739;SDS011;36704;52.524;17.580;2022-07-30T11:46:21;12.40;;;1.45;;
50739;SDS011;36704;52.524;17.580;2022-07-30T11:49:15;4.97;;;1.27;;
50739;SDS011;36704;52.524;17.580;2022-07-30T11:52:02;7.60;;;1.25;;
50739;SDS011;36704;52.524;17.580;2022-07-30T11:54:53;2.40;;;1.10;;
50739;SDS011;36704;52.524;17.580;2022-07-30T11:57:42;2.28;;;1.10;;
50739;SDS011;36704;52.524;17.580;2022-07-30T12:00:48;5.43;;;1.50;;
50739;SDS011;36704;52.524;17.580;2022-07-30T12:03:37;4.28;;;1.50;;
50739;SDS011;36704;52.524;17.580;2022-07-30T12:06:30;3.60;;;1.77;;
50739;SDS011;36704;52.524;17.580;2022-07-30T12:09:23;7.20;;;3.95;;
50739;SDS011;36704;52.524;17.580;2022-07-30T12:12:21;7.72;;;3.00;;
50739;SDS011;36704;52.524;17.580;2022-07-30T12:15:32;6.53;;;2.30;;
50739;SDS011;36704;52.524;17.580;2022-07-30T12:18:24;4.25;;;2.05;;
50739;SDS011;36704;52.524;17.580;2022-07-30T12:21:16;3.03;;;2.10;;
50739;SDS011;36704;52.524;17.580;2022-07-30T12:24:03;5.68;;;1.80;;
50739;SDS011;36704;52.524;17.580;2022-07-30T12:27:05;2.35;;;2.00;;
50739;SDS011;36704;52.524;17.580;2022-07-30T12:29:52;2.13;;;1.50;;
50739;SDS011;36704;52.524;17.580;2022-07-30T12:32:49;3.53;;;1.88;;
50739;SDS011;36704;52.524;17.580;2022-07-30T12:35:48;3.10;;;1.77;;
50739;SDS011;36704;52.524;17.580;2022-07-30T12:38:44;5.72;;;2.97;;
50739;SDS011;36704;52.524;17.580;2022-07-30T12:41:43;4.80;;;2.88;;
50739;SDS011;36704;52.524;17.580;2022-07-30T12:47:25;8.93;;;4.32;;
50739;SDS011;36704;52.524;17.580;2022-07-30T12:50:15;8.57;;;5.05;;
50739;SDS011;36704;52.524;17.580;2022-07-30T12:53:02;7.47;;;3.90;;
50739;SDS011;36704;52.524;17.580;2022-07-30T12:55:49;11.73;;;2.80;;
50739;SDS011;36704;52.524;17.580;2022-07-30T12:58:39;6.68;;;3.15;;
50739;SDS011;36704;52.524;17.580;2022-07-30T13:01:42;3.83;;;2.25;;
50739;SDS011;36704;52.524;17.580;2022-07-30T13:04:32;7.68;;;2.40;;
50739;SDS011;36704;52.524;17.580;2022-07-30T13:07:27;5.75;;;2.38;;
50739;SDS011;36704;52.524;17.580;2022-07-30T13:10:18;4.38;;;2.30;;
50739;SDS011;36704;52.524;17.580;2022-07-30T13:13:05;3.38;;;2.10;;
50739;SDS011;36704;52.524;17.580;2022-07-30T13:15:58;6.60;;;3.13;;
50739;SDS011;36704;52.524;17.580;2022-07-30T13:18:47;8.48;;;4.93;;
50739;SDS011;36704;52.524;17.580;2022-07-30T13:21:33;5.95;;;3.38;;
50739;SDS011;36704;52.524;17.580;2022-07-30T13:24:24;4.90;;;2.78;;
50739;SDS011;36704;52.524;17.580;2022-07-30T13:27:12;3.95;;;2.03;;
50739;SDS011;36704;52.524;17.580;2022-07-30T13:30:04;3.97;;;1.52;;
50739;SDS011;36704;52.524;17.580;2022-07-30T13:32:52;8.13;;;1.83;;
50739;SDS011;36704;52.524;17.580;2022-07-30T13:35:39;4.85;;;2.08;;
50739;SDS011;36704;52.524;17.580;2022-07-30T13:38:26;3.67;;;1.80;;
50739;SDS011;36704;52.524;17.580;2022-07-30T13:41:16;2.40;;;1.70;;
50739;SDS011;36704;52.524;17.580;2022-07-30T13:44:04;2.90;;;1.63;;
50739;SDS011;36704;52.524;17.580;2022-07-30T13:46:53;3.33;;;2.05;;
50739;SDS011;36704;52.524;17.580;2022-07-30T13:49:45;3.30;;;1.88;;
50739;SDS011;36704;52.524;17.580;2022-07-30T13:52:34;5.70;;;1.77;;
50739;SDS011;36704;52.524;17.580;2022-07-30T13:55:22;6.65;;;1.77;;
50739;SDS011;36704;52.524;17.580;2022-07-30T13:58:10;2.47;;;1.60;;
50739;SDS011;36704;52.524;17.580;2022-07-30T14:00:57;3.53;;;1.90;;
50739;SDS011;36704;52.524;17.580;2022-07-30T14:03:44;5.22;;;2.00;;
50739;SDS011;36704;52.524;17.580;2022-07-30T14:06:35;4.28;;;2.05;;
50739;SDS011;36704;52.524;17.580;2022-07-30T14:09:21;4.57;;;1.63;;
50739;SDS011;36704;52.524;17.580;2022-07-30T14:12:07;2.17;;;1.60;;
50739;SDS011;36704;52.524;17.580;2022-07-30T14:14:56;3.35;;;1.95;;
50739;SDS011;36704;52.524;17.580;2022-07-30T14:17:42;3.42;;;1.85;;
50739;SDS011;36704;52.524;17.580;2022-07-30T14:20:41;4.30;;;1.90;;
50739;SDS011;36704;52.524;17.580;2022-07-30T14:23:33;5.93;;;1.80;;
50739;SDS011;36704;52.524;17.580;2022-07-30T14:26:19;5.75;;;2.05;;
50739;SDS011;36704;52.524;17.580;2022-07-30T14:29:05;4.13;;;1.88;;
50739;SDS011;36704;52.524;17.580;2022-07-30T14:31:54;2.28;;;1.70;;
50739;SDS011;36704;52.524;17.580;2022-07-30T14:34:40;3.55;;;1.90;;
50739;SDS011;36704;52.524;17.580;2022-07-30T14:37:34;3.33;;;1.88;;
50739;SDS011;36704;52.524;17.580;2022-07-30T14:40:21;5.43;;;2.22;;
50739;SDS011;36704;52.524;17.580;2022-07-30T14:43:09;3.22;;;2.00;;
50739;SDS011;36704;52.524;17.580;2022-07-30T14:45:57;4.22;;;2.03;;
50739;SDS011;36704;52.524;17.580;2022-07-30T14:48:43;4.53;;;2.40;;
50739;SDS011;36704;52.524;17.580;2022-07-30T14:51:30;6.63;;;2.90;;
50739;SDS011;36704;52.524;17.580;2022-07-30T14:54:19;5.47;;;2.65;;
50739;SDS011;36704;52.524;17.580;2022-07-30T14:57:05;3.78;;;2.35;;
50739;SDS011;36704;52.524;17.580;2022-07-30T14:59:56;6.03;;;2.47;;
50739;SDS011;36704;52.524;17.580;2022-07-30T15:02:42;5.43;;;2.85;;
50739;SDS011;36704;52.524;17.580;2022-07-30T15:05:28;6.75;;;2.78;;
50739;SDS011;36704;52.524;17.580;2022-07-30T15:08:15;6.03;;;2.83;;
50739;SDS011;36704;52.524;17.580;2022-07-30T15:11:11;7.35;;;3.00;;
50739;SDS011;36704;52.524;17.580;2022-07-30T15:13:57;4.90;;;2.97;;
50739;SDS011;36704;52.524;17.580;2022-07-30T15:16:45;7.15;;;3.30;;
50739;SDS011;36704;52.524;17.580;2022-07-30T15:19:32;6.55;;;3.15;;
50739;SDS011;36704;52.524;17.580;2022-07-30T15:22:19;7.75;;;3.45;;
50739;SDS011;36704;52.524;17.580;2022-07-30T15:25:06;5.00;;;3.00;;
50739;SDS011;36704;52.524;17.580;2022-07-30T15:27:57;5.57;;;3.13;;
50739;SDS011;36704;52.524;17.580;2022-07-30T15:30:43;7.30;;;3.15;;
50739;SDS011;36704;52.524;17.580;2022-07-30T15:33:30;3.47;;;2.75;;
50739;SDS011;36704;52.524;17.580;2022-07-30T15:36:21;7.93;;;3.03;;
50739;SDS011;36704;52.524;17.580;2022-07-30T15:39:08;3.72;;;2.78;;
50739;SDS011;36704;52.524;17.580;2022-07-30T15:41:58;5.82;;;3.40;;
50739;SDS011;36704;52.524;17.580;2022-07-30T15:44:49;5.97;;;3.20;;
50739;SDS011;36704;52.524;17.580;2022-07-30T15:47:55;5.85;;;3.30;;
50739;SDS011;36704;52.524;17.580;2022-07-30T15:50:42;5.45;;;2.90;;
50739;SDS011;36704;52.524;17.580;2022-07-30T15:53:30;6.18;;;3.05;;
50739;SDS011;36704;52.524;17.580;2022-07-30T15:56:17;4.90;;;3.17;;
50739;SDS011;36704;52.524;17.580;2022-07-30T15:59:03;7.38;;;3.50;;
50739;SDS011;36704;52.524;17.580;2022-07-30T16:01:58;4.85;;;3.25;;
50739;SDS011;36704;52.524;17.580;2022-07-30T16:04:44;7.88;;;3.58;;
50739;SDS011;36704;52.524;17.580;2022-07-30T16:07:33;5.38;;;3.50;;
50739;SDS011;36704;52.524;17.580;2022-07-30T16:10:19;7.15;;;3.45;;
50739;SDS011;36704;52.524;17.580;2022-07-30T16:13:06;12.02;;;5.00;;
50739;SDS011;36704;52.524;17.580;2022-07-30T16:18:43;4.45;;;3.15;;
50739;SDS011;36704;52.524;17.580;2022-07-30T16:21:32;4.20;;;3.00;;
50739;SDS011;36704;52.524;17.580;2022-07-30T16:24:25;5.25;;;3.35;;
50739;SDS011;36704;52.524;17.580;2022-07-30T16:27:12;5.63;;;2.97;;
50739;SDS011;36704;52.524;17.580;2022-07-30T16:30:01;4.28;;;3.10;;
50739;SDS011;36704;52.524;17.580;2022-07-30T16:32:50;5.60;;;4.00;;
50739;SDS011;36704;52.524;17.580;2022-07-30T16:35:43;9.50;;;4.30;;
50739;SDS011;36704;52.524;17.580;2022-07-30T16:38:35;6.20;;;3.63;;
50739;SDS011;36704;52.524;17.580;2022-07-30T16:41:24;5.45;;;3.45;;
50739;SDS011;36704;52.524;17.580;2022-07-30T16:44:11;9.00;;;3.85;;
50739;SDS011;36704;52.524;17.580;2022-07-30T16:47:07;10.20;;;4.88;;
50739;SDS011;36704;52.524;17.580;2022-07-30T16:50:03;12.18;;;4.20;;
50739;SDS011;36704;52.524;17.580;2022-07-30T16:52:56;19.10;;;5.78;;
50739;SDS011;36704;52.524;17.580;2022-07-30T16:55:43;26.58;;;7.13;;
50739;SDS011;36704;52.524;17.580;2022-07-30T16:58:31;12.60;;;5.25;;
50739;SDS011;36704;52.524;17.580;2022-07-30T17:01:18;14.85;;;5.55;;
50739;SDS011;36704;52.524;17.580;2022-07-30T17:04:09;6.00;;;3.80;;
50739;SDS011;36704;52.524;17.580;2022-07-30T17:06:56;10.82;;;4.90;;
50739;SDS011;36704;52.524;17.580;2022-07-30T17:09:41;6.00;;;4.15;;
50739;SDS011;36704;52.524;17.580;2022-07-30T17:12:37;7.60;;;5.20;;
50739;SDS011;36704;52.524;17.580;2022-07-30T17:15:24;8.77;;;4.50;;
50739;SDS011;36704;52.524;17.580;2022-07-30T17:18:17;5.95;;;3.65;;
50739;SDS011;36704;52.524;17.580;2022-07-30T17:21:06;9.13;;;5.05;;
50739;SDS011;36704;52.524;17.580;2022-07-30T17:23:51;4.97;;;3.60;;
50739;SDS011;36704;52.524;17.580;2022-07-30T17:26:38;7.40;;;3.78;;
50739;SDS011;36704;52.524;17.580;2022-07-30T17:29:27;6.35;;;3.80;;
50739;SDS011;36704;52.524;17.580;2022-07-30T17:32:14;5.75;;;3.90;;
50739;SDS011;36704;52.524;17.580;2022-07-30T17:35:00;10.10;;;4.32;;